Etusivu
METAR-TAF:

METAR-TAF

Lentoasemat :

Souillac

Brive-la-Gaillarde, Ranska

Leveyspiiri: 45-02-28N, Pituuspiiri: 001-28-59E, korkeus merenpinnasta: 311 m

Tämänhetkinen sää

Tämä raportti tehtiin 16 minuuttia sitten, kello 11.00 UTC
Tuuli 11 kn etelästä/kaakosta, vaihdellen idän/kaakon ja etelän välillä
Lämpötila 19°C
Kosteus 28%
Ilmanpaine 1024 hPa
Näkyvyys 10 km tai enemmän
ei pilviä alle 1500 m:ssä eikä cumulonimbus-pilviä

METAR: LFSL 071100Z AUTO 15011KT 120V180 CAVOK 19/00 Q1024

Aika: 13:16 (11:16 UTC)


TAF: puuttuu

Säähavainnot ja -ennusteet yli 4000 lentoasemalta (METAR- ja TAF-raportit).

Käytössä olevat sääasemat on merkitty karttaan keltaisilla ja punaisilla pisteillä.

Aseta hiiri pisteen päälle nähdäksesi sääaseman nimen.

Klikkaa sitten nähdäksesi säähavainnot ja -ennusteet.

Kartan vaihtaminen: klikkaa mustalla rastilla varustettuja vihreitä pisteitä, niin voit zoomata sisään; viivalla varustettua vihreää pistettä, niin voit zoomata ulos tai vihreitä nuolia, niin pääset viereisille kartoille.


METAR-TAF: